Latest Weather Observations for PORTABLE RFSNSW02

IDN60801

Issued at 10:52 am EST Tuesday 14 July 2020 (issued every 10 minutes, with the page automatically refreshed every 10 minutes)

About weather observations | Map of weather stations | Latest weather observations for NSW | Other Formats
Station Details ID: 250042 Name: PORTABLE RFSNSW02 Lat: -35.27 Lon: 148.24 Height: 267.0 m

Portable automatic weather stations (PAWS) are operated by other organisations, such as Fire and Emergency Services, and are included here by agreement. Portable stations may be deployed to a location for a short period and their location may be subject to change without notice. Wind observations from these stations are provided from heights of either three (3) or ten (10) metres above ground level (AGL).

Data from the previous 72 hours. | See also: Recent months for locations in New South Wales
Date/Time
EST
Temp
°C
App
Temp
°C
Dew
Point
°C
Rel
Hum
%
Delta-T
°C
Wind Press
QNH
hPa
Press
MSL
hPa
Rain since
9am
mm
Dir  Spd
km/h
Gust
km/h
Spd
kts
Gust
kts
14/10:40am 11.6 10.2 8.8 83 1.4 NNW 6 7 3 4 - - 0.0
14/10:30am 10.8 9.6 9.6 92 0.6 NNW 6 6 3 3 - - 0.0
14/10:20am 9.9 8.5 9.0 94 0.5 N 6 6 3 3 - - 0.0
14/10:10am 8.8 7.4 8.8 100 0.0 N 6 7 3 4 - - 0.0
14/10:00am 8.1 6.3 8.1 100 0.0 NNW 7 9 4 5 - - 0.0
14/09:50am 7.3 5.3 7.3 100 0.0 N 7 9 4 5 - - 0.0
14/09:40am 6.5 4.6 6.5 100 0.0 N 6 6 3 3 - - 0.0
14/09:30am 5.8 3.5 5.8 100 0.0 N 7 9 4 5 - - 0.0
14/09:20am 5.2 2.8 5.2 100 0.0 NNW 7 7 4 4 - - 0.0
14/09:10am 4.8 2.5 4.8 100 0.0 NW 6 7 3 4 - - 0.0
14/09:00am 3.9 1.8 3.9 100 0.0 NE 4 6 2 3 - - 0.6
14/08:50am 2.8 0.9 2.8 100 0.0 NNE 2 2 1 1 - - 0.6
14/08:40am 2.3 -0.1 2.3 100 0.0 SSE 4 4 2 2 - - 0.6
14/08:30am 1.8 -0.7 1.8 100 0.0 W 4 7 2 4 - - 0.6
14/08:20am 1.5 -0.6 1.5 100 0.0 N 2 2 1 1 - - 0.6
14/08:10am 1.3 -0.9 1.3 100 0.0 NNW 2 4 1 2 - - 0.6
14/08:00am 1.2 -1.0 1.2 100 0.0 N 2 4 1 2 - - 0.6
14/07:50am 0.9 -1.7 0.9 100 0.0 E 4 6 2 3 - - 0.6
14/07:40am 0.7 -1.6 0.7 100 0.0 WNW 2 4 1 2 - - 0.6
14/07:30am 0.9 -1.3 0.9 100 0.0 E 2 4 1 2 - - 0.6
14/07:20am 1.1 -1.5 1.1 100 0.0 SE 4 7 2 4 - - 0.6
14/07:10am 1.3 -1.3 1.2 99 0.0 NNE 4 6 2 3 - - 0.6
14/07:00am 1.0 -1.2 1.0 100 0.0 NW 2 4 1 2 - - 0.6
14/06:50am 0.9 -1.7 0.9 100 0.0 S 4 6 2 3 - - 0.6
14/06:40am 1.0 -1.6 1.0 100 0.0 SSW 4 6 2 3 - - 0.6
14/06:30am 1.4 -0.7 1.4 100 0.0 WSW 2 4 1 2 - - 0.6
14/06:20am 2.2 0.2 2.2 100 0.0 N 2 4 1 2 - - 0.6
14/06:10am 2.2 -0.2 2.2 100 0.0 E 4 6 2 3 - - 0.6
14/06:00am 2.3 -0.1 2.3 100 0.0 E 4 7 2 4 - - 0.6
14/05:50am 2.2 -0.2 2.2 100 0.0 N 4 7 2 4 - - 0.6
14/05:40am 2.5 0.2 2.5 100 0.0 E 4 7 2 4 - - 0.6
14/05:30am 2.3 -0.1 2.3 100 0.0 NW 4 6 2 3 - - 0.6
14/05:20am 2.0 -0.4 2.0 100 0.0 SSW 4 6 2 3 - - 0.6
14/05:10am 2.2 -0.2 2.2 100 0.0 S 4 9 2 5 - - 0.6
14/05:00am 2.5 -0.2 2.5 100 0.0 SSW 6 7 3 4 - - 0.6
14/04:50am 3.6 1.1 3.6 100 0.0 ESE 6 7 3 4 - - 0.6
14/04:40am 3.3 0.5 3.3 100 0.0 ESE 7 9 4 5 - - 0.6
14/04:30am 2.9 1.0 2.9 100 0.0 W 2 4 1 2 - - 0.6
14/04:20am 3.1 0.8 3.0 99 0.0 NE 4 6 2 3 - - 0.6
14/04:10am 3.1 0.5 3.1 100 0.0 WNW 6 7 3 4 - - 0.6
14/04:00am 4.2 1.6 4.2 100 0.0 N 7 7 4 4 - - 0.6
14/03:50am 3.2 0.4 3.2 100 0.0 N 7 9 4 5 - - 0.6
14/03:40am 3.4 0.8 3.3 99 0.0 NNE 6 7 3 4 - - 0.6
14/03:30am 3.0 0.7 3.0 100 0.0 ENE 4 9 2 5 - - 0.6
14/03:20am 2.7 0.4 2.7 100 0.0 WNW 4 6 2 3 - - 0.6
14/03:10am 3.0 0.7 3.0 100 0.0 NNW 4 6 2 3 - - 0.6
14/03:00am 3.0 0.4 3.0 100 0.0 N 6 6 3 3 - - 0.6
14/02:50am 3.0 0.4 3.0 100 0.0 N 6 6 3 3 - - 0.6
14/02:40am 3.4 1.2 3.4 100 0.0 N 4 7 2 4 - - 0.6
14/02:30am 3.2 1.4 3.2 100 0.0 W 2 4 1 2 - - 0.6
14/02:20am 3.3 1.1 3.3 100 0.0 S 4 6 2 3 - - 0.6
14/02:00am 3.6 1.1 3.6 100 0.0 S 6 7 3 4 - - 0.6
14/01:50am 3.9 2.2 3.8 99 0.0 ENE 2 2 1 1 - - 0.6
14/01:40am 4.0 1.9 4.0 100 0.0 N 4 6 2 3 - - 0.6
14/01:30am 4.1 2.0 4.1 100 0.0 NNE 4 4 2 2 - - 0.6
14/01:20am 3.7 1.9 3.7 100 0.0 E 2 6 1 3 - - 0.6
14/01:10am 4.1 2.0 4.1 100 0.0 NNW 4 6 2 3 - - 0.6
14/01:00am 4.3 1.9 4.3 100 0.0 N 6 6 3 3 - - 0.6
14/12:50am 4.5 2.9 4.5 100 0.0 S 2 2 1 1 - - 0.6
14/12:40am 4.9 3.4 4.8 99 0.0 ESE 2 4 1 2 - - 0.6
14/12:30am 5.1 3.2 5.1 100 0.0 E 4 6 2 3 - - 0.6
14/12:20am 5.0 3.5 5.0 100 0.0 ENE 2 2 1 1 - - 0.6
14/12:10am 4.8 3.3 4.8 100 0.0 S 2 4 1 2 - - 0.6
14/12:00am 4.7 3.1 4.6 99 0.0 SSE 2 4 1 2 - - 0.6
 
Date/Time
EST
Temp
°C
App
Temp
°C
Dew
Point
°C
Rel
Hum
%
Delta-T
°C
Wind Press
QNH
hPa
Press
MSL
hPa
Rain since
9am
mm
Dir  Spd
km/h
Gust
km/h
Spd
kts
Gust
kts
13/11:50pm 4.4 2.4 4.4 100 0.0 SW 4 6 2 3 - - 0.6
13/11:40pm 4.3 2.7 4.3 100 0.0 SSW 2 4 1 2 - - 0.6
13/11:30pm 4.3 2.7 4.3 100 0.0 WSW 2 4 1 2 - - 0.6
13/11:20pm 4.6 2.6 4.6 100 0.0 N 4 7 2 4 - - 0.6
13/11:10pm 4.4 2.4 4.3 99 0.0 NNE 4 4 2 2 - - 0.6
13/11:00pm 4.1 2.4 4.1 100 0.0 E 2 4 1 2 - - 0.6
13/10:50pm 4.2 2.5 4.2 100 0.0 ESE 2 4 1 2 - - 0.6
13/10:40pm 4.5 2.5 4.5 100 0.0 ESE 4 4 2 2 - - 0.6
13/10:30pm 4.9 3.4 4.9 100 0.0 ESE 2 2 1 1 - - 0.6
13/10:20pm 4.7 3.1 4.7 100 0.0 S 2 4 1 2 - - 0.6
13/10:10pm 5.0 3.5 4.9 99 0.0 SSE 2 4 1 2 - - 0.6
13/10:00pm 5.0 3.5 5.0 100 0.0 SSW 2 4 1 2 - - 0.6
13/09:50pm 5.5 4.1 5.5 100 0.0 SW 2 4 1 2 - - 0.6
13/09:40pm 6.0 4.3 6.0 100 0.0 N 4 6 2 3 - - 0.6
13/09:30pm 6.5 5.3 6.5 100 0.0 NNE 2 4 1 2 - - 0.6
13/09:20pm 6.7 5.6 6.7 100 0.0 ESE 2 4 1 2 - - 0.6
13/09:10pm 6.8 4.9 6.8 100 0.0 S 6 6 3 3 - - 0.6
13/09:00pm 6.9 5.4 6.9 100 0.0 SE 4 6 2 3 - - 0.6
13/08:50pm 7.2 6.2 7.2 100 0.0 S 2 4 1 2 - - 0.6
13/08:40pm 7.4 6.0 7.4 100 0.0 SE 4 6 2 3 - - 0.6
13/08:30pm 7.2 5.4 7.2 100 0.0 SE 6 6 3 3 - - 0.6
13/08:20pm 7.2 6.2 7.2 100 0.0 S 2 4 1 2 - - 0.6
13/08:10pm 6.8 5.3 6.8 100 0.0 ESE 4 6 2 3 - - 0.6
13/08:00pm 7.0 5.9 7.0 100 0.0 E 2 2 1 1 - - 0.6
13/07:50pm 7.0 5.9 7.0 100 0.0 NE 2 4 1 2 - - 0.6
13/07:40pm 7.1 5.7 7.1 100 0.0 NNW 4 6 2 3 - - 0.6
13/07:30pm 7.1 5.3 7.1 100 0.0 W 6 7 3 4 - - 0.6
13/07:20pm 7.6 6.7 7.6 100 0.0 N 2 4 1 2 - - 0.6
13/07:10pm 7.8 6.9 7.7 99 0.0 E 2 4 1 2 - - 0.6
13/07:00pm 8.0 6.8 8.0 100 0.0 E 4 6 2 3 - - 0.6
13/06:50pm 7.9 7.0 7.9 100 0.0 E 2 6 1 3 - - 0.6
13/06:40pm 8.1 6.9 8.1 100 0.0 SE 4 6 2 3 - - 0.6
13/06:30pm 8.1 6.9 8.1 100 0.0 S 4 6 2 3 - - 0.6
13/06:20pm 8.4 6.9 8.4 100 0.0 SE 6 6 3 3 - - 0.6
13/06:10pm 8.6 7.9 8.6 100 0.0 SE 2 4 1 2 - - 0.6
13/06:00pm 8.9 8.3 8.9 100 0.0 NNW 2 2 1 1 - - 0.6
13/05:50pm 9.3 8.4 9.1 99 0.1 NE 4 4 2 2 - - 0.6
13/05:40pm 9.8 8.4 8.8 93 0.5 ENE 6 6 3 3 - - 0.6
13/05:30pm 9.8 8.5 9.3 97 0.3 E 6 7 3 4 - - 0.6
13/05:20pm 10.1 8.9 9.4 95 0.4 E 6 6 3 3 - - 0.6
13/05:10pm 10.5 9.4 9.9 96 0.3 E 6 6 3 3 - - 0.6
13/05:00pm 10.9 10.2 10.1 95 0.4 ENE 4 6 2 3 - - 0.6
13/04:50pm 11.2 10.5 10.0 92 0.6 - 4 7 2 4 - - 0.6
13/04:40pm 11.4 11.0 9.8 90 0.8 NW 2 2 1 1 - - 0.6
13/04:30pm 11.5 11.2 10.0 90 0.8 NNW 2 2 1 1 - - 0.6
13/04:20pm 11.6 11.3 10.0 90 0.8 N 2 4 1 2 - - 0.6
13/04:10pm 11.6 10.4 9.7 88 1.0 N 6 7 3 4 - - 0.6
13/04:00pm 11.8 10.5 9.9 88 1.0 NNE 7 7 4 4 - - 0.6
13/03:50pm 11.9 10.8 9.8 87 1.1 NNE 6 6 3 3 - - 0.6
13/03:40pm 11.9 11.1 9.8 87 1.1 N 4 6 2 3 - - 0.6
13/03:30pm 11.9 10.6 9.2 83 1.4 NNW 6 7 3 4 - - 0.6
13/03:20pm 12.2 10.8 9.6 84 1.3 N 7 9 4 5 - - 0.6
13/03:10pm 12.6 11.2 8.9 78 1.9 N 6 7 3 4 - - 0.6
13/03:00pm 12.7 11.2 8.5 75 2.1 N 6 9 3 5 - - 0.6
13/02:50pm 12.6 11.2 8.9 78 1.9 NNW 6 7 3 4 - - 0.6
13/02:40pm 12.3 10.9 8.9 80 1.7 NNW 6 7 3 4 - - 0.6
13/02:30pm 12.5 11.6 9.3 81 1.6 N 4 7 2 4 - - 0.6
13/02:20pm 12.6 12.0 8.8 77 1.9 N 2 6 1 3 - - 0.6
13/02:10pm 12.7 11.7 9.0 78 1.9 W 4 6 2 3 - - 0.6
13/02:00pm 12.6 12.0 9.1 79 1.8 NNW 2 2 1 1 - - 0.6
13/01:50pm 12.3 11.4 9.2 81 1.6 WSW 4 6 2 3 - - 0.6
13/01:40pm 12.4 11.7 9.9 85 1.3 W 4 6 2 3 - - 0.6
13/01:30pm 12.2 10.9 9.1 81 1.6 SW 6 7 3 4 - - 0.6
13/01:20pm 12.0 10.8 9.7 86 1.2 W 6 7 3 4 - - 0.6
13/01:10pm 12.3 11.1 10.2 87 1.1 W 7 9 4 5 - - 0.6
13/01:00pm 12.9 11.9 10.2 84 1.4 SW 6 7 3 4 - - 0.6
13/12:50pm 12.7 11.8 10.6 87 1.1 SW 6 7 3 4 - - 0.6
13/12:40pm 12.6 11.4 9.6 82 1.5 NW 6 7 3 4 - - 0.6
13/12:30pm 12.9 12.3 10.4 85 1.3 NNW 4 6 2 3 - - 0.6
13/12:20pm 12.6 11.9 11.3 92 0.7 NW 6 9 3 5 - - 0.6
13/12:10pm 12.7 11.8 10.8 88 1.0 WSW 6 7 3 4 - - 0.6
13/12:00pm 12.3 11.5 9.6 83 1.4 N 4 6 2 3 - - 0.6
13/11:50am 11.7 10.9 9.6 87 1.1 ENE 4 6 2 3 - - 0.6
13/11:40am 10.6 10.4 10.4 99 0.1 WSW 2 2 1 1 - - 0.6
13/11:30am 9.6 9.2 9.6 100 0.0 NNE 2 2 1 1 - - 0.6
13/11:20am 9.1 8.5 9.1 100 0.0 SE 2 4 1 2 - - 0.6
13/11:10am 8.8 7.8 8.8 100 0.0 S 4 4 2 2 - - 0.6
13/11:00am 8.6 7.5 8.6 100 0.0 S 4 4 2 2 - - 0.6
13/10:50am 8.3 7.5 8.3 100 0.0 S 2 2 1 1 - - 0.6
13/10:40am 8.0 7.2 8.0 100 0.0 S 2 2 1 1 - - 0.4
13/10:30am 8.0 7.2 8.0 100 0.0 S 2 4 1 2 - - 0.4
13/10:20am 7.9 7.0 7.9 100 0.0 S 2 4 1 2 - - 0.4
13/10:10am 7.9 7.0 7.9 100 0.0 SSW 2 4 1 2 - - 0.2
13/10:00am 7.8 6.9 7.8 100 0.0 WSW 2 4 1 2 - - 0.2
13/09:50am 7.6 6.7 7.6 100 0.0 SW 2 4 1 2 - - 0.2
13/09:40am 7.5 6.2 7.5 100 0.0 S 4 4 2 2 - - 0.2
13/09:30am 7.4 6.4 7.4 100 0.0 ESE 2 2 1 1 - - 0.0
13/09:20am 7.3 6.3 7.3 100 0.0 E 2 2 1 1 - - 0.0
13/09:10am 7.2 6.2 7.2 100 0.0 E 2 2 1 1 - - 0.0
13/09:00am 7.1 6.0 7.1 100 0.0 ENE 2 2 1 1 - - 3.6
13/08:50am 7.1 6.0 7.1 100 0.0 NE 2 4 1 2 - - 3.6
13/08:40am 6.9 5.8 6.9 100 0.0 N 2 2 1 1 - - 3.4
13/08:30am 6.8 5.7 6.8 100 0.0 ENE 2 4 1 2 - - 3.4
13/08:20am 6.8 5.7 6.8 100 0.0 N 2 2 1 1 - - 3.4
13/08:10am 6.7 5.6 6.7 100 0.0 W 2 4 1 2 - - 3.4
13/08:00am 6.7 5.6 6.7 100 0.0 NNE 2 4 1 2 - - 3.4
13/07:50am 6.6 5.4 6.6 100 0.0 ENE 2 2 1 1 - - 3.4
13/07:40am 6.6 4.7 6.6 100 0.0 S 6 9 3 5 - - 3.4
13/07:30am 6.7 4.2 6.7 100 0.0 SSW 9 9 5 5 - - 3.4
13/07:20am 6.7 4.2 6.7 100 0.0 S 9 9 5 5 - - 3.2
13/07:10am 6.8 4.7 6.8 100 0.0 SSW 7 9 4 5 - - 2.8
13/07:00am 6.8 5.3 6.8 100 0.0 S 4 6 2 3 - - 2.4
13/06:50am 6.8 5.3 6.8 100 0.0 SSE 4 6 2 3 - - 2.2
13/06:40am 6.8 5.7 6.8 100 0.0 SE 2 4 1 2 - - 1.6
13/06:30am 6.8 5.3 6.8 100 0.0 SE 4 4 2 2 - - 1.4
13/06:20am 6.7 4.8 6.7 100 0.0 SSE 6 6 3 3 - - 1.4
13/06:10am 6.8 4.9 6.8 100 0.0 SSW 6 6 3 3 - - 1.4
13/06:00am 6.7 5.2 6.7 100 0.0 SW 4 4 2 2 - - 1.4
13/05:50am 6.7 5.9 6.7 100 0.0 CALM 0 2 0 1 - - 1.4
13/05:40am 6.7 5.6 6.7 100 0.0 NNE 2 2 1 1 - - 1.4
13/05:30am 6.6 5.4 6.6 100 0.0 ENE 2 2 1 1 - - 1.4
13/05:20am 6.6 5.4 6.6 100 0.0 SSE 2 4 1 2 - - 1.4
13/05:10am 6.6 5.8 6.6 100 0.0 CALM 0 2 0 1 - - 1.4
13/05:00am 6.6 5.4 6.6 100 0.0 NNE 2 2 1 1 - - 1.4
13/04:50am 6.6 5.4 6.6 100 0.0 NNE 2 4 1 2 - - 1.4
13/04:40am 6.7 5.2 6.7 100 0.0 N 4 6 2 3 - - 1.4
13/04:30am 6.7 5.2 6.7 100 0.0 N 4 4 2 2 - - 1.4
13/04:20am 6.7 5.2 6.7 100 0.0 ESE 4 4 2 2 - - 1.4
13/04:10am 6.7 5.6 6.7 100 0.0 SE 2 4 1 2 - - 1.4
13/04:00am 6.8 5.7 6.8 100 0.0 ESE 2 4 1 2 - - 1.4
13/03:50am 6.9 6.2 6.9 100 0.0 CALM 0 2 0 1 - - 1.4
13/03:40am 7.1 6.0 7.0 99 0.0 NW 2 4 1 2 - - 1.4
13/03:30am 7.2 5.8 7.2 100 0.0 N 4 6 2 3 - - 1.4
13/03:20am 7.3 5.9 7.3 100 0.0 N 4 6 2 3 - - 1.4
13/03:10am 7.3 5.5 7.3 100 0.0 N 6 7 3 4 - - 1.4
13/03:00am 7.2 5.4 7.2 100 0.0 NNE 6 7 3 4 - - 1.4
13/02:50am 7.3 5.5 7.3 100 0.0 NE 6 7 3 4 - - 1.4
13/02:40am 7.5 6.1 7.4 99 0.0 N 4 6 2 3 - - 1.4
13/02:30am 7.8 6.9 7.8 100 0.0 NNW 2 4 1 2 - - 1.4
13/02:20am 8.2 7.4 8.2 100 0.0 WNW 2 4 1 2 - - 1.4
13/02:10am 8.4 7.2 8.2 99 0.1 S 4 6 2 3 - - 1.2
13/02:00am 8.6 7.0 7.9 95 0.3 SE 6 7 3 4 - - 1.0
13/01:50am 8.6 6.3 7.6 93 0.5 SSE 9 11 5 6 - - 1.0
13/01:40am 8.6 6.4 7.7 94 0.4 SE 9 13 5 7 - - 1.0
13/01:30am 8.2 7.0 8.0 99 0.1 S 4 6 2 3 - - 1.0
13/01:20am 8.0 6.8 8.0 100 0.0 S 4 6 2 3 - - 1.0
13/01:10am 8.2 7.0 8.2 100 0.0 SSW 4 6 2 3 - - 1.0
13/01:00am 8.4 6.9 8.4 100 0.0 W 6 7 3 4 - - 1.0
13/12:50am 8.5 7.0 8.5 100 0.0 SSE 6 9 3 5 - - 0.8
13/12:40am 8.3 6.8 8.3 100 0.0 SE 6 7 3 4 - - 0.8
13/12:30am 8.2 6.6 8.2 100 0.0 S 6 7 3 4 - - 0.8
13/12:20am 8.1 6.0 8.1 100 0.0 SSE 9 11 5 6 - - 0.8
13/12:10am 7.9 6.3 7.9 100 0.0 SSE 6 7 3 4 - - 0.8
13/12:00am 7.8 6.5 7.8 100 0.0 S 4 6 2 3 - - 0.8
 
Date/Time
EST
Temp
°C
App
Temp
°C
Dew
Point
°C
Rel
Hum
%
Delta-T
°C
Wind Press
QNH
hPa
Press
MSL
hPa
Rain since
9am
mm
Dir  Spd
km/h
Gust
km/h
Spd
kts
Gust
kts
12/11:50pm 7.8 6.2 7.8 100 0.0 SSE 6 7 3 4 - - 0.8
12/11:40pm 7.6 5.9 7.6 100 0.0 SSE 6 7 3 4 - - 0.8
12/11:30pm 7.6 6.7 7.6 100 0.0 SW 2 4 1 2 - - 0.8
12/11:20pm 7.6 6.7 7.6 100 0.0 - 2 2 1 1 - - 0.8
12/11:10pm 7.5 6.5 7.5 100 0.0 S 2 2 1 1 - - 0.6
12/11:00pm 7.5 6.5 7.5 100 0.0 SSW 2 2 1 1 - - 0.6
12/10:50pm 7.5 6.2 7.5 100 0.0 SW 4 7 2 4 - - 0.6
12/10:40pm 7.4 6.0 7.4 100 0.0 S 4 7 2 4 - - 0.6
12/10:30pm 7.3 5.5 7.3 100 0.0 S 6 7 3 4 - - 0.6
12/10:20pm 7.4 6.4 7.4 100 0.0 SSW 2 4 1 2 - - 0.6
12/10:10pm 7.2 6.2 7.2 100 0.0 N 2 4 1 2 - - 0.6
12/10:00pm 7.2 6.2 7.2 100 0.0 N 2 4 1 2 - - 0.6
12/09:50pm 7.3 6.3 7.3 100 0.0 NNE 2 6 1 3 - - 0.6
12/09:40pm 7.3 5.9 7.3 100 0.0 N 4 6 2 3 - - 0.6
12/09:30pm 7.2 6.2 7.2 100 0.0 NNW 2 2 1 1 - - 0.6
12/09:20pm 7.2 6.2 7.2 100 0.0 W 2 2 1 1 - - 0.6
12/09:10pm 7.4 6.8 7.4 100 0.0 CALM 0 2 0 1 - - 0.6
12/09:00pm 7.3 6.3 7.3 100 0.0 SSE 2 4 1 2 - - 0.6
12/08:50pm 7.0 5.9 7.0 100 0.0 S 2 4 1 2 - - 0.6
12/08:40pm 6.9 5.8 6.9 100 0.0 S 2 2 1 1 - - 0.6
12/08:30pm 7.0 6.3 7.0 100 0.0 CALM 0 2 0 1 - - 0.6
12/08:20pm 7.3 6.3 7.3 100 0.0 ESE 2 4 1 2 - - 0.6
12/08:10pm 7.4 6.0 7.4 100 0.0 ESE 4 6 2 3 - - 0.6
12/08:00pm 7.4 6.4 7.4 100 0.0 SSE 2 4 1 2 - - 0.6
12/07:50pm 7.7 6.8 7.7 100 0.0 SE 2 2 1 1 - - 0.6
12/07:40pm 7.9 7.0 7.9 100 0.0 E 2 4 1 2 - - 0.6
12/07:30pm 8.1 7.3 8.1 100 0.0 SE 2 4 1 2 - - 0.6
12/07:20pm 8.3 7.5 8.3 100 0.0 S 2 2 1 1 - - 0.6
12/07:10pm 8.5 7.8 8.5 100 0.0 S 2 2 1 1 - - 0.6
12/07:00pm 8.5 7.0 8.5 100 0.0 S 6 6 3 3 - - 0.6
12/06:50pm 8.9 7.5 8.9 100 0.0 ESE 6 6 3 3 - - 0.6
12/06:40pm 9.1 7.8 9.1 100 0.0 E 6 6 3 3 - - 0.6
12/06:30pm 9.1 8.2 9.1 100 0.0 ENE 4 6 2 3 - - 0.6
12/06:20pm 9.1 8.2 9.1 100 0.0 ENE 4 6 2 3 - - 0.6
12/06:10pm 9.0 7.6 9.0 100 0.0 ENE 6 6 3 3 - - 0.6
12/06:00pm 9.3 8.4 9.3 100 0.0 N 4 6 2 3 - - 0.6
12/05:50pm 9.4 8.2 9.4 100 0.0 N 6 6 3 3 - - 0.6
12/05:40pm 9.7 8.9 9.7 100 0.0 WNW 4 6 2 3 - - 0.6
12/05:30pm 9.9 9.5 9.9 100 0.0 WSW 2 6 1 3 - - 0.6
12/05:20pm 10.0 9.3 10.0 100 0.0 - 4 6 2 3 - - 0.6
12/05:10pm 10.1 9.4 10.1 100 0.0 E 4 6 2 3 - - 0.6
12/05:00pm 10.2 9.9 10.2 100 0.0 ENE 2 4 1 2 - - 0.6
12/04:50pm 10.5 9.8 10.1 97 0.2 NNE 4 6 2 3 - - 0.6
12/04:40pm 11.0 10.7 10.2 95 0.4 NNE 2 4 1 2 - - 0.6
12/04:30pm 11.5 11.2 10.2 92 0.7 NNE 2 2 1 1 - - 0.6
12/04:20pm 12.0 11.7 10.2 89 0.9 NW 2 4 1 2 - - 0.6
12/04:10pm 12.6 12.3 10.2 85 1.3 N 2 4 1 2 - - 0.6
12/04:00pm 12.8 12.0 9.7 81 1.6 E 4 4 2 2 - - 0.6
12/03:50pm 12.8 12.4 9.6 81 1.7 E 2 4 1 2 - - 0.6
12/03:40pm 12.9 12.2 9.9 82 1.6 E 4 6 2 3 - - 0.6
12/03:30pm 13.1 12.8 10.1 82 1.6 ESE 2 2 1 1 - - 0.6
12/03:20pm 12.9 12.4 9.5 80 1.8 SSE 2 2 1 1 - - 0.6
12/03:10pm 12.5 12.2 10.0 85 1.3 S 2 4 1 2 - - 0.6
12/03:00pm 12.6 12.1 9.3 80 1.7 SSW 2 2 1 1 - - 0.6
12/02:50pm 12.3 11.4 9.4 82 1.5 WSW 4 4 2 2 - - 0.6
12/02:40pm 12.5 12.0 9.5 82 1.5 SW 2 4 1 2 - - 0.6
12/02:30pm 12.8 12.1 10.1 84 1.4 SSW 4 6 2 3 - - 0.6
12/02:20pm 13.0 12.5 9.5 79 1.8 SSW 2 6 1 3 - - 0.6
12/02:10pm 13.0 12.1 10.7 86 1.2 SW 6 6 3 3 - - 0.6
12/02:00pm 14.2 13.5 10.2 77 2.1 WSW 4 7 2 4 - - 0.6
12/01:50pm 14.1 13.3 9.6 74 2.3 SW 4 6 2 3 - - 0.6
12/01:40pm 14.1 13.5 9.0 71 2.6 W 2 6 1 3 - - 0.6
12/01:30pm 13.6 12.9 10.2 80 1.8 S 4 6 2 3 - - 0.6
12/01:20pm 13.5 13.0 10.8 84 1.4 ESE 4 7 2 4 - - 0.6
12/01:10pm 13.7 13.5 10.4 80 1.7 E 2 4 1 2 - - 0.6
12/01:00pm 13.0 12.4 10.3 84 1.4 ENE 4 4 2 2 - - 0.6
12/12:50pm 12.5 12.1 9.9 84 1.3 N 2 4 1 2 - - 0.6
12/12:40pm 11.5 11.0 10.6 94 0.5 SE 4 6 2 3 - - 0.6
12/12:30pm 11.0 10.8 10.5 97 0.3 ESE 2 4 1 2 - - 0.6
12/12:20pm 11.3 11.2 10.7 96 0.3 SW 2 4 1 2 - - 0.6
12/12:10pm 11.0 10.5 10.7 98 0.2 SSW 4 6 2 3 - - 0.6
12/12:00pm 10.4 9.8 10.4 100 0.0 ESE 4 4 2 2 - - 0.6
12/11:50am 9.9 9.5 9.9 100 0.0 SE 2 4 1 2 - - 0.6
12/11:40am 9.4 8.9 9.4 100 0.0 NE 2 4 1 2 - - 0.4
12/11:30am 9.3 8.8 9.3 100 0.0 SSW 2 2 1 1 - - 0.4
12/11:20am 9.3 8.8 9.3 100 0.0 N 2 4 1 2 - - 0.4
12/11:10am 9.1 8.5 9.1 100 0.0 WNW 2 2 1 1 - - 0.4
12/11:00am 9.0 8.4 9.0 100 0.0 W 2 2 1 1 - - 0.4
12/10:50am 8.7 8.0 8.7 100 0.0 W 2 4 1 2 - - 0.2
12/10:40am 8.6 7.9 8.6 100 0.0 WSW 2 2 1 1 - - 0.2
12/10:30am 8.3 7.5 8.3 100 0.0 SSW 2 4 1 2 - - 0.2
12/10:20am 8.1 7.3 8.1 100 0.0 WNW 2 2 1 1 - - 0.2
12/10:10am 7.7 6.8 7.7 100 0.0 NW 2 2 1 1 - - 0.2
12/10:00am 7.5 6.5 7.5 100 0.0 W 2 4 1 2 - - 0.0
12/09:50am 7.4 6.4 7.4 100 0.0 SSW 2 4 1 2 - - 0.0
12/09:40am 7.3 6.3 7.3 100 0.0 SW 2 4 1 2 - - 0.0
12/09:30am 7.0 5.9 7.0 100 0.0 E 2 2 1 1 - - 0.0
12/09:20am 6.9 5.8 6.9 100 0.0 NNE 2 2 1 1 - - 0.0
12/09:10am 6.8 6.1 6.8 100 0.0 CALM 0 2 0 1 - - 0.0
12/09:00am 6.8 5.7 6.8 100 0.0 SSE 2 2 1 1 - - 4.0
12/08:50am 6.7 5.6 6.7 100 0.0 W 2 2 1 1 - - 4.0
12/08:40am 6.5 5.3 6.5 100 0.0 W 2 2 1 1 - - 4.0
12/08:30am 6.4 5.2 6.4 100 0.0 NW 2 4 1 2 - - 4.0
12/08:20am 6.3 5.1 6.3 100 0.0 N 2 4 1 2 - - 4.0
12/08:10am 6.1 4.8 6.1 100 0.0 SSE 2 4 1 2 - - 4.0
12/08:00am 6.0 4.3 6.0 100 0.0 S 4 4 2 2 - - 4.0
12/07:50am 5.8 4.1 5.8 100 0.0 S 4 4 2 2 - - 4.0
12/07:40am 5.7 4.0 5.7 100 0.0 SSE 4 6 2 3 - - 4.0
12/07:30am 5.7 3.6 5.7 100 0.0 S 6 6 3 3 - - 4.0
12/07:20am 5.5 3.7 5.5 100 0.0 SSW 4 6 2 3 - - 4.0
12/07:10am 5.5 4.1 5.5 100 0.0 SE 2 4 1 2 - - 4.0
12/07:00am 5.4 4.0 5.4 100 0.0 ESE 2 2 1 1 - - 4.0
12/06:50am 5.4 4.0 5.4 100 0.0 SW 2 4 1 2 - - 4.0
12/06:40am 5.4 4.0 5.4 100 0.0 SW 2 4 1 2 - - 4.0
12/06:30am 5.5 4.1 5.5 100 0.0 SSW 2 2 1 1 - - 4.0
12/06:20am 5.5 4.1 5.5 100 0.0 SE 2 4 1 2 - - 4.0
12/06:00am 5.1 3.2 5.1 100 0.0 NNE 4 6 2 3 - - 4.0
12/05:50am 4.9 2.6 4.9 100 0.0 N 6 6 3 3 - - 4.0
12/05:40am 4.7 2.2 4.7 100 0.0 N 7 9 4 5 - - 4.0
12/05:30am 5.1 3.2 5.1 100 0.0 N 4 6 2 3 - - 4.0
12/05:20am 5.3 3.9 5.3 100 0.0 W 2 4 1 2 - - 4.0
12/05:10am 5.5 3.7 5.5 100 0.0 W 4 4 2 2 - - 4.0
12/05:00am 5.9 4.6 5.9 100 0.0 SE 2 4 1 2 - - 4.0
12/04:50am 6.0 3.9 6.0 100 0.0 SE 6 6 3 3 - - 4.0
12/04:40am 6.0 4.3 6.0 100 0.0 S 4 4 2 2 - - 4.0
12/04:30am 6.1 4.8 6.1 100 0.0 S 2 2 1 1 - - 4.0
12/04:20am 6.2 4.9 6.2 100 0.0 WNW 2 2 1 1 - - 4.0
12/04:10am 6.2 4.6 6.2 100 0.0 E 4 4 2 2 - - 4.0
12/04:00am 6.1 4.4 6.1 100 0.0 E 4 6 2 3 - - 4.0
12/03:50am 6.1 4.8 6.1 100 0.0 ESE 2 4 1 2 - - 4.0
12/03:40am 6.2 4.9 6.2 100 0.0 NNW 2 4 1 2 - - 4.0
12/03:30am 6.3 5.1 6.3 100 0.0 NW 2 4 1 2 - - 4.0
12/03:20am 6.3 5.1 6.3 100 0.0 W 2 4 1 2 - - 4.0
12/03:10am 6.4 5.2 6.4 100 0.0 S 2 4 1 2 - - 4.0
12/03:00am 6.4 5.2 6.4 100 0.0 E 2 4 1 2 - - 4.0
12/02:50am 6.3 5.1 6.3 100 0.0 ENE 2 4 1 2 - - 4.0
12/02:40am 6.3 4.3 6.3 100 0.0 ENE 6 6 3 3 - - 4.0
12/02:30am 6.3 4.7 6.3 100 0.0 E 4 4 2 2 - - 4.0
12/02:20am 6.3 5.1 6.3 100 0.0 ENE 2 4 1 2 - - 4.0
12/02:10am 6.2 4.9 6.2 100 0.0 ENE 2 4 1 2 - - 4.0
12/02:00am 6.2 4.9 6.2 100 0.0 NNE 2 4 1 2 - - 4.0
12/01:50am 6.1 4.4 6.1 100 0.0 NNE 4 6 2 3 - - 4.0
12/01:40am 6.1 4.4 6.0 99 0.0 NNW 4 7 2 4 - - 4.0
12/01:30am 6.0 4.7 6.0 100 0.0 N 2 2 1 1 - - 4.0
12/01:20am 6.1 4.4 6.1 100 0.0 N 4 7 2 4 - - 4.0
12/01:10am 6.0 3.9 6.0 100 0.0 S 6 7 3 4 - - 4.0
12/01:00am 6.2 4.6 6.2 100 0.0 SW 4 6 2 3 - - 4.0
12/12:50am 6.3 5.1 6.3 100 0.0 NW 2 4 1 2 - - 4.0
12/12:40am 6.3 4.7 6.3 100 0.0 SSW 4 4 2 2 - - 4.0
12/12:30am 6.3 4.7 6.3 100 0.0 SSW 4 4 2 2 - - 4.0
12/12:20am 6.3 4.3 6.3 100 0.0 SSW 6 7 3 4 - - 4.0
12/12:10am 6.4 3.9 6.4 100 0.0 S 9 11 5 6 - - 3.8
12/12:00am 6.4 4.2 6.4 100 0.0 S 7 11 4 6 - - 3.8
 
Date/Time
EST
Temp
°C
App
Temp
°C
Dew
Point
°C
Rel
Hum
%
Delta-T
°C
Wind Press
QNH
hPa
Press
MSL
hPa
Rain since
9am
mm
Dir  Spd
km/h
Gust
km/h
Spd
kts
Gust
kts
11/11:50pm 6.3 4.1 6.3 100 0.0 SSE 7 9 4 5 - - 3.8
11/11:40pm 6.2 4.0 6.2 100 0.0 S 7 9 4 5 - - 3.8
11/11:30pm 6.2 4.9 6.2 100 0.0 SSE 2 4 1 2 - - 3.8
11/11:20pm 6.1 4.8 6.1 100 0.0 ENE 2 4 1 2 - - 3.8
11/11:10pm 6.0 4.3 6.0 100 0.0 ENE 4 6 2 3 - - 3.8
11/11:00pm 5.9 4.2 5.9 100 0.0 E 4 6 2 3 - - 3.6
11/10:50pm 5.8 4.5 5.8 100 0.0 SE 2 2 1 1 - - 3.6
11/10:40pm 5.7 4.3 5.7 100 0.0 NNW 2 2 1 1 - - 3.6
11/10:30pm 5.6 4.2 5.6 100 0.0 S 2 4 1 2 - - 3.6
11/10:20pm 5.5 3.7 5.5 100 0.0 SW 4 4 2 2 - - 3.6
11/10:10pm 5.2 3.4 5.2 100 0.0 WSW 4 6 2 3 - - 3.6
11/10:00pm 4.9 3.0 4.9 100 0.0 SSW 4 6 2 3 - - 3.6
11/09:50pm 4.8 2.9 4.8 100 0.0 SSE 4 6 2 3 - - 3.6
11/09:40pm 4.9 3.4 4.9 100 0.0 S 2 6 1 3 - - 3.6
11/09:30pm 5.0 2.5 5.0 100 0.0 S 7 7 4 4 - - 3.6
11/09:20pm 5.4 3.2 5.4 100 0.0 S 6 6 3 3 - - 3.6
11/09:10pm 5.5 3.3 5.4 99 0.0 S 6 7 3 4 - - 3.6
11/09:00pm 5.5 3.3 5.5 100 0.0 SSE 6 6 3 3 - - 3.6
11/08:50pm 5.4 3.2 5.4 100 0.0 ESE 6 7 3 4 - - 3.6
11/08:40pm 4.8 2.5 4.8 100 0.0 E 6 6 3 3 - - 3.6
11/08:30pm 3.8 2.1 3.8 100 0.0 NE 2 2 1 1 - - 3.6
11/08:20pm 3.2 1.4 3.2 100 0.0 S 2 6 1 3 - - 3.6
11/08:10pm 3.1 0.5 3.1 100 0.0 SSW 6 6 3 3 - - 3.6
11/08:00pm 3.5 1.3 3.5 100 0.0 S 4 6 2 3 - - 3.6
11/07:50pm 3.4 0.8 3.4 100 0.0 SSE 6 6 3 3 - - 3.6
11/07:40pm 2.9 1.0 2.9 100 0.0 SSE 2 4 1 2 - - 3.6
11/07:30pm 3.1 0.9 3.1 100 0.0 S 4 6 2 3 - - 3.6
11/07:20pm 3.3 1.1 3.3 100 0.0 SSW 4 6 2 3 - - 3.6
11/07:10pm 3.9 2.2 3.8 99 0.0 SSE 2 4 1 2 - - 3.6
11/07:00pm 5.4 3.2 5.4 100 0.0 E 6 7 3 4 - - 3.6
11/06:50pm 4.7 2.8 4.7 100 0.0 E 4 7 2 4 - - 3.6
11/06:40pm 4.6 3.0 4.6 100 0.0 NE 2 2 1 1 - - 3.6
11/06:30pm 5.0 3.1 5.0 100 0.0 NNE 4 4 2 2 - - 3.6
11/06:20pm 5.5 4.1 5.4 99 0.0 N 2 4 1 2 - - 3.6
11/06:10pm 5.9 4.6 5.9 100 0.0 NW 2 2 1 1 - - 3.6
11/06:00pm 6.0 4.7 5.9 99 0.0 W 2 2 1 1 - - 3.6
11/05:50pm 6.0 4.7 6.0 100 0.0 ENE 2 2 1 1 - - 3.6
11/05:40pm 6.7 5.6 6.7 100 0.0 N 2 2 1 1 - - 3.6
11/05:30pm 7.1 6.0 7.1 100 0.0 NNW 2 4 1 2 - - 3.6
11/05:20pm 7.9 7.0 7.9 100 0.0 NE 2 2 1 1 - - 3.6
11/05:10pm 8.4 7.3 8.4 100 0.0 E 4 4 2 2 - - 3.6
11/05:00pm 9.1 8.2 9.1 100 0.0 WNW 4 6 2 3 - - 3.6
11/04:50pm 9.7 8.5 9.7 100 0.0 WNW 6 7 3 4 - - 3.6
11/04:40pm 10.4 9.3 10.1 98 0.2 W 6 7 3 4 - - 3.6
11/04:30pm 10.8 10.5 10.0 95 0.4 W 2 4 1 2 - - 3.6
11/04:20pm 10.4 9.3 9.8 96 0.3 ESE 6 7 3 4 - - 3.6
11/04:10pm 10.1 7.5 9.3 95 0.4 - 13 15 7 8 - - 3.6
11/04:00pm 10.2 8.1 9.8 97 0.2 E 11 13 6 7 - - 3.6
11/03:50pm 10.0 6.8 9.9 99 0.1 E 17 24 9 13 - - 3.6
11/03:40pm 9.4 7.6 9.4 100 0.0 ENE 9 15 5 8 - - 3.6
11/03:30pm 9.2 7.9 9.2 100 0.0 NNE 6 6 3 3 - - 3.4
11/03:20pm 9.3 8.4 9.3 100 0.0 NNW 4 4 2 2 - - 3.4
11/03:10pm 9.4 8.5 9.4 100 0.0 NW 4 4 2 2 - - 3.4
11/03:00pm 9.4 8.9 9.4 100 0.0 W 2 4 1 2 - - 3.4
11/02:50pm 9.4 8.9 9.4 100 0.0 SSW 2 2 1 1 - - 3.4
11/02:40pm 9.2 8.3 9.2 100 0.0 SSW 4 6 2 3 - - 3.4
11/02:30pm 9.2 7.9 9.1 99 0.0 SSW 6 7 3 4 - - 3.4
11/02:20pm 9.1 7.8 9.1 100 0.0 SSW 6 7 3 4 - - 3.4
11/02:10pm 9.2 7.7 9.2 100 0.0 SW 7 7 4 4 - - 3.4
11/02:00pm 9.4 8.5 9.4 100 0.0 SSW 4 6 2 3 - - 3.4
11/01:50pm 9.2 8.3 9.2 100 0.0 S 4 6 2 3 - - 3.4
11/01:40pm 8.6 7.9 8.6 100 0.0 S 2 4 1 2 - - 3.4
11/01:30pm 8.3 7.2 8.3 100 0.0 S 4 6 2 3 - - 3.4
11/01:20pm 8.0 6.8 8.0 100 0.0 S 4 4 2 2 - - 3.4
11/01:10pm 7.9 6.7 7.9 100 0.0 SSE 4 6 2 3 - - 3.2
11/01:00pm 7.9 7.0 7.9 100 0.0 SSE 2 4 1 2 - - 2.8
11/12:50pm 7.8 6.9 7.8 100 0.0 SSE 2 2 1 1 - - 2.6
11/12:40pm 7.7 6.4 7.7 100 0.0 ENE 4 4 2 2 - - 2.4
11/12:30pm 7.7 6.8 7.7 100 0.0 NE 2 2 1 1 - - 2.2
11/12:20pm 7.6 6.7 7.6 100 0.0 NE 2 2 1 1 - - 2.0
11/12:10pm 7.6 6.7 7.6 100 0.0 N 2 4 1 2 - - 1.8
11/12:00pm 7.6 6.7 7.6 100 0.0 N 2 4 1 2 - - 1.6
11/11:50am 7.6 6.7 7.6 100 0.0 NNE 2 2 1 1 - - 1.4
11/11:40am 7.5 6.5 7.5 100 0.0 NE 2 2 1 1 - - 1.2
11/11:30am 7.5 6.2 7.5 100 0.0 N 4 4 2 2 - - 1.0
11/11:20am 7.5 6.5 7.5 100 0.0 N 2 4 1 2 - - 0.8
11/11:10am 7.4 6.4 7.4 100 0.0 NNW 2 4 1 2 - - 0.6
11/11:00am 7.4 6.4 7.4 100 0.0 NW 2 4 1 2 - - 0.6

Other formats

Comma delimited format used in spreadsheet applications
http://www.bom.gov.au/fwo/IDN60801/IDN60801.99072.axf

JavaScript Object Notation format (JSON) in row-major order
http://www.bom.gov.au/fwo/IDN60801/IDN60801.99072.json

Data quality

Most of these data are generated automatically and are frequently updated. Quality checks on data are not normally performed. It is possible for incorrect values to appear. Refer to information at About Latest Weather Observations and please check the disclaimer before using these data.